LUKK Airport Information

Runway Information
Runway 08 Length 11779 ft width 145 ft
Elevation 399 ft Threshold 0 ft Heading 88
Runway 26 Length 11779 ft Width 145 ft
Elevation 279 ft Threshold 0 ft Heading 268
Airport Frequencies
Type APP Name APP Frequency 125.9 MHZ
Type ATIS Name ATIS Frequency 133.7 MHZ
Type GND Name GND Frequency 121.8 MHZ
Type TWR Name TWR Frequency 118.1 MHZ
Airport Navaids
Type VOR-DME Name Chisinau Frequency 113700 KHZ
Airport Weather Information & NOTAM
ADDS - METARS form results

(1101 UTC 26 January 2022)
Data provider http://aviationweather.gov/metar/data/
 
METAR text: LUKK 261100Z 33011KT 9999 -RASN SCT014 BKN026 OVC034 02/00 Q1018 TEMPO 4000 SN OVC010
Conditions at: LUKK (CHISINAU INTL , MD) observed 1100 UTC 26 January 2022
Temperature: 2.0°C (36°F)
Dewpoint: 0.0°C (32°F) [RH = 87%]
Pressure (altimeter): 30.06 inches Hg (1018.0 mb)
Winds: from the NNW (330 degrees) at 13 MPH (11 knots; 5.7 m/s)
Visibility: 6 or more miles (10+ km)
Ceiling: 2600 feet AGL
Clouds: scattered clouds at 1400 feet AGL
broken clouds at 2600 feet AGL
overcast cloud deck at 3400 feet AGL
Weather: -RA -SN  (light rain, light snow)

METAR text: LUKK 261030Z 36005KT 340V040 8000 -SN BKN015 BKN023 01/M01 Q1018 TEMPO 4000 SN OVC010
Conditions at: LUKK (CHISINAU INTL , MD) observed 1030 UTC 26 January 2022
Temperature: 1.0°C (34°F)
Dewpoint: -1.0°C (30°F) [RH = 86%]
Pressure (altimeter): 30.06 inches Hg (1018.0 mb)
Winds: from the N (360 degrees) at 6 MPH (5 knots; 2.6 m/s)
Visibility: 5 miles ( 8 km)
Ceiling: 1500 feet AGL
Clouds: broken clouds at 1500 feet AGL
broken clouds at 2300 feet AGL
Weather: -SN  (light snow)

Forecast for: LUKK (CHISINAU INTL , MD)
Text: TAF LUKK 260520Z 2606/2706 31012KT 5000 SN BR BKN010
Forecast period: 0600 UTC 26 January 2022 to 0600 UTC 27 January 2022
Forecast type: FROM: standard forecast or significant change
Winds: from the NW (310 degrees) at 14 MPH (12 knots; 6.2 m/s)
Visibility: 3 miles (5 km)
Ceiling: 1000 feet AGL
Clouds: broken clouds at 1000 feet AGL
Weather: SN BR  (moderate snow, mist)
Text: TEMPO 2606/2621 1000 SHSN BR BKN005 SCT012CB
Forecast period: 0600 to 2100 UTC 26 January 2022
Forecast type: TEMPORARY: The following changes expected for less than half the time period
Visibility: 0.62 miles (1.00 km)
Ceiling: 500 feet AGL
Clouds: broken clouds at 500 feet AGL
scattered clouds at 1200 feet AGL
Weather: SHSN BR  (snow showers, mist)